sensor_id;sensor_type;location;lat;lon;timestamp;P1;durP1;ratioP1;P2;durP2;ratioP2
39074;SDS011;24826;52.070;20.970;2022-11-20T00:02:19;58.45;;;30.88;;
39074;SDS011;24826;52.070;20.970;2022-11-20T00:05:03;58.38;;;29.08;;
39074;SDS011;24826;52.070;20.970;2022-11-20T00:07:47;52.75;;;27.52;;
39074;SDS011;24826;52.070;20.970;2022-11-20T00:10:32;55.42;;;28.73;;
39074;SDS011;24826;52.070;20.970;2022-11-20T00:13:16;58.55;;;28.67;;
39074;SDS011;24826;52.070;20.970;2022-11-20T00:16:01;55.88;;;29.88;;
39074;SDS011;24826;52.070;20.970;2022-11-20T00:18:47;56.83;;;29.45;;
39074;SDS011;24826;52.070;20.970;2022-11-20T00:21:32;55.17;;;29.20;;
39074;SDS011;24826;52.070;20.970;2022-11-20T00:24:17;62.25;;;30.58;;
39074;SDS011;24826;52.070;20.970;2022-11-20T00:27:01;58.25;;;29.98;;
39074;SDS011;24826;52.070;20.970;2022-11-20T00:29:45;56.38;;;28.42;;
39074;SDS011;24826;52.070;20.970;2022-11-20T00:32:30;59.97;;;29.60;;
39074;SDS011;24826;52.070;20.970;2022-11-20T00:35:14;64.07;;;31.30;;
39074;SDS011;24826;52.070;20.970;2022-11-20T00:37:59;60.08;;;28.17;;
39074;SDS011;24826;52.070;20.970;2022-11-20T00:40:44;54.80;;;28.88;;
39074;SDS011;24826;52.070;20.970;2022-11-20T00:43:28;56.08;;;27.83;;
39074;SDS011;24826;52.070;20.970;2022-11-20T00:46:14;55.53;;;29.45;;
39074;SDS011;24826;52.070;20.970;2022-11-20T00:49:03;56.87;;;28.50;;
39074;SDS011;24826;52.070;20.970;2022-11-20T00:51:47;54.83;;;28.48;;
39074;SDS011;24826;52.070;20.970;2022-11-20T00:54:31;61.83;;;30.27;;
39074;SDS011;24826;52.070;20.970;2022-11-20T00:57:16;59.15;;;29.67;;
39074;SDS011;24826;52.070;20.970;2022-11-20T01:00:00;62.33;;;30.85;;
39074;SDS011;24826;52.070;20.970;2022-11-20T01:02:45;59.85;;;29.90;;
39074;SDS011;24826;52.070;20.970;2022-11-20T01:05:33;63.65;;;29.08;;
39074;SDS011;24826;52.070;20.970;2022-11-20T01:08:19;59.67;;;29.30;;
39074;SDS011;24826;52.070;20.970;2022-11-20T01:11:08;59.95;;;28.23;;
39074;SDS011;24826;52.070;20.970;2022-11-20T01:13:54;55.72;;;28.20;;
39074;SDS011;24826;52.070;20.970;2022-11-20T01:16:40;57.85;;;28.13;;
39074;SDS011;24826;52.070;20.970;2022-11-20T01:22:14;53.90;;;27.70;;
39074;SDS011;24826;52.070;20.970;2022-11-20T01:24:59;62.35;;;30.65;;
39074;SDS011;24826;52.070;20.970;2022-11-20T01:27:43;65.68;;;30.58;;
39074;SDS011;24826;52.070;20.970;2022-11-20T01:30:28;58.97;;;29.73;;
39074;SDS011;24826;52.070;20.970;2022-11-20T01:33:12;59.70;;;28.55;;
39074;SDS011;24826;52.070;20.970;2022-11-20T01:36:03;56.75;;;26.40;;
39074;SDS011;24826;52.070;20.970;2022-11-20T01:38:52;57.70;;;26.83;;
39074;SDS011;24826;52.070;20.970;2022-11-20T01:41:38;54.92;;;27.83;;
39074;SDS011;24826;52.070;20.970;2022-11-20T01:44:49;53.80;;;25.92;;
39074;SDS011;24826;52.070;20.970;2022-11-20T01:47:38;52.40;;;26.40;;
39074;SDS011;24826;52.070;20.970;2022-11-20T01:50:26;47.25;;;25.58;;
39074;SDS011;24826;52.070;20.970;2022-11-20T01:53:18;55.95;;;26.73;;
39074;SDS011;24826;52.070;20.970;2022-11-20T01:56:06;47.67;;;25.45;;
39074;SDS011;24826;52.070;20.970;2022-11-20T01:58:56;53.08;;;27.33;;
39074;SDS011;24826;52.070;20.970;2022-11-20T02:01:45;51.10;;;25.60;;
39074;SDS011;24826;52.070;20.970;2022-11-20T02:04:30;56.25;;;26.83;;
39074;SDS011;24826;52.070;20.970;2022-11-20T02:07:14;55.28;;;27.98;;
39074;SDS011;24826;52.070;20.970;2022-11-20T02:10:00;54.97;;;27.55;;
39074;SDS011;24826;52.070;20.970;2022-11-20T02:12:46;53.08;;;27.30;;
39074;SDS011;24826;52.070;20.970;2022-11-20T02:15:49;50.83;;;26.77;;
39074;SDS011;24826;52.070;20.970;2022-11-20T02:18:34;53.88;;;26.73;;
39074;SDS011;24826;52.070;20.970;2022-11-20T02:24:07;49.42;;;25.10;;
39074;SDS011;24826;52.070;20.970;2022-11-20T02:26:59;47.90;;;24.33;;
39074;SDS011;24826;52.070;20.970;2022-11-20T02:32:58;50.90;;;26.63;;
39074;SDS011;24826;52.070;20.970;2022-11-20T02:35:43;53.90;;;27.15;;
39074;SDS011;24826;52.070;20.970;2022-11-20T02:38:29;55.40;;;27.45;;
39074;SDS011;24826;52.070;20.970;2022-11-20T02:41:13;52.40;;;26.33;;
39074;SDS011;24826;52.070;20.970;2022-11-20T02:43:57;50.25;;;24.65;;
39074;SDS011;24826;52.070;20.970;2022-11-20T02:46:42;51.38;;;26.00;;
39074;SDS011;24826;52.070;20.970;2022-11-20T02:49:26;53.58;;;27.45;;
39074;SDS011;24826;52.070;20.970;2022-11-20T02:52:10;57.50;;;27.27;;
39074;SDS011;24826;52.070;20.970;2022-11-20T02:54:55;51.55;;;26.77;;
39074;SDS011;24826;52.070;20.970;2022-11-20T02:57:39;54.00;;;27.17;;
39074;SDS011;24826;52.070;20.970;2022-11-20T03:00:24;48.60;;;25.35;;
39074;SDS011;24826;52.070;20.970;2022-11-20T03:03:08;60.80;;;28.00;;
39074;SDS011;24826;52.070;20.970;2022-11-20T03:05:53;50.15;;;25.75;;
39074;SDS011;24826;52.070;20.970;2022-11-20T03:08:37;50.97;;;25.27;;
39074;SDS011;24826;52.070;20.970;2022-11-20T03:11:21;56.72;;;25.55;;
39074;SDS011;24826;52.070;20.970;2022-11-20T03:14:05;49.72;;;25.48;;
39074;SDS011;24826;52.070;20.970;2022-11-20T03:16:50;54.03;;;24.95;;
39074;SDS011;24826;52.070;20.970;2022-11-20T03:19:34;51.63;;;26.13;;
39074;SDS011;24826;52.070;20.970;2022-11-20T03:22:18;45.08;;;25.42;;
39074;SDS011;24826;52.070;20.970;2022-11-20T03:25:03;51.22;;;26.98;;
39074;SDS011;24826;52.070;20.970;2022-11-20T03:27:47;56.45;;;26.42;;
39074;SDS011;24826;52.070;20.970;2022-11-20T03:30:31;53.30;;;25.77;;
39074;SDS011;24826;52.070;20.970;2022-11-20T03:33:16;49.42;;;26.98;;
39074;SDS011;24826;52.070;20.970;2022-11-20T03:36:02;55.00;;;26.40;;
39074;SDS011;24826;52.070;20.970;2022-11-20T03:38:50;57.70;;;28.20;;
39074;SDS011;24826;52.070;20.970;2022-11-20T03:41:38;54.63;;;27.40;;
39074;SDS011;24826;52.070;20.970;2022-11-20T03:44:24;54.25;;;27.88;;
39074;SDS011;24826;52.070;20.970;2022-11-20T03:47:08;52.80;;;25.63;;
39074;SDS011;24826;52.070;20.970;2022-11-20T03:49:52;57.10;;;27.00;;
39074;SDS011;24826;52.070;20.970;2022-11-20T03:52:36;54.78;;;26.23;;
39074;SDS011;24826;52.070;20.970;2022-11-20T03:55:21;53.05;;;26.20;;
39074;SDS011;24826;52.070;20.970;2022-11-20T03:58:05;49.58;;;26.15;;
39074;SDS011;24826;52.070;20.970;2022-11-20T04:00:50;53.40;;;28.00;;
39074;SDS011;24826;52.070;20.970;2022-11-20T04:03:35;52.20;;;26.55;;
39074;SDS011;24826;52.070;20.970;2022-11-20T04:06:21;55.03;;;28.30;;
39074;SDS011;24826;52.070;20.970;2022-11-20T04:09:18;57.53;;;26.25;;
39074;SDS011;24826;52.070;20.970;2022-11-20T04:12:02;48.95;;;25.98;;
39074;SDS011;24826;52.070;20.970;2022-11-20T04:14:46;52.20;;;26.42;;
39074;SDS011;24826;52.070;20.970;2022-11-20T04:17:30;53.97;;;26.00;;
39074;SDS011;24826;52.070;20.970;2022-11-20T04:20:15;52.65;;;27.80;;
39074;SDS011;24826;52.070;20.970;2022-11-20T04:22:59;55.55;;;26.77;;
39074;SDS011;24826;52.070;20.970;2022-11-20T04:25:44;51.92;;;26.38;;
39074;SDS011;24826;52.070;20.970;2022-11-20T04:28:28;53.65;;;27.92;;
39074;SDS011;24826;52.070;20.970;2022-11-20T04:31:16;54.53;;;27.73;;
39074;SDS011;24826;52.070;20.970;2022-11-20T04:34:06;49.58;;;25.65;;
39074;SDS011;24826;52.070;20.970;2022-11-20T04:36:50;58.17;;;27.38;;
39074;SDS011;24826;52.070;20.970;2022-11-20T04:39:35;53.78;;;27.33;;
39074;SDS011;24826;52.070;20.970;2022-11-20T04:42:19;50.97;;;27.55;;
39074;SDS011;24826;52.070;20.970;2022-11-20T04:45:13;54.33;;;27.08;;
39074;SDS011;24826;52.070;20.970;2022-11-20T04:47:57;49.83;;;26.50;;
39074;SDS011;24826;52.070;20.970;2022-11-20T04:50:42;53.78;;;26.15;;
39074;SDS011;24826;52.070;20.970;2022-11-20T04:53:26;51.47;;;27.20;;
39074;SDS011;24826;52.070;20.970;2022-11-20T04:56:11;51.22;;;25.98;;
39074;SDS011;24826;52.070;20.970;2022-11-20T04:58:59;48.67;;;25.63;;
39074;SDS011;24826;52.070;20.970;2022-11-20T05:01:44;54.80;;;26.77;;
39074;SDS011;24826;52.070;20.970;2022-11-20T05:04:28;53.70;;;26.20;;
39074;SDS011;24826;52.070;20.970;2022-11-20T05:07:13;48.70;;;25.80;;
39074;SDS011;24826;52.070;20.970;2022-11-20T05:09:57;52.40;;;25.13;;
39074;SDS011;24826;52.070;20.970;2022-11-20T05:12:42;54.63;;;26.20;;
39074;SDS011;24826;52.070;20.970;2022-11-20T05:15:27;50.78;;;24.83;;
39074;SDS011;24826;52.070;20.970;2022-11-20T05:18:11;50.97;;;26.30;;
39074;SDS011;24826;52.070;20.970;2022-11-20T05:20:58;48.85;;;24.83;;
39074;SDS011;24826;52.070;20.970;2022-11-20T05:23:43;49.95;;;25.75;;
39074;SDS011;24826;52.070;20.970;2022-11-20T05:26:28;47.38;;;24.42;;
39074;SDS011;24826;52.070;20.970;2022-11-20T05:29:13;51.75;;;24.40;;
39074;SDS011;24826;52.070;20.970;2022-11-20T05:31:57;48.97;;;25.13;;
39074;SDS011;24826;52.070;20.970;2022-11-20T05:34:41;49.88;;;25.80;;
39074;SDS011;24826;52.070;20.970;2022-11-20T05:37:26;48.78;;;24.85;;
39074;SDS011;24826;52.070;20.970;2022-11-20T05:40:11;54.30;;;25.48;;
39074;SDS011;24826;52.070;20.970;2022-11-20T05:42:56;49.15;;;24.73;;
39074;SDS011;24826;52.070;20.970;2022-11-20T05:45:41;50.60;;;26.70;;
39074;SDS011;24826;52.070;20.970;2022-11-20T05:48:25;48.13;;;24.50;;
39074;SDS011;24826;52.070;20.970;2022-11-20T05:51:10;50.72;;;23.65;;
39074;SDS011;24826;52.070;20.970;2022-11-20T05:53:56;51.45;;;26.02;;
39074;SDS011;24826;52.070;20.970;2022-11-20T05:56:41;55.10;;;25.00;;
39074;SDS011;24826;52.070;20.970;2022-11-20T05:59:26;46.20;;;24.17;;
39074;SDS011;24826;52.070;20.970;2022-11-20T06:02:10;52.03;;;25.25;;
39074;SDS011;24826;52.070;20.970;2022-11-20T06:04:55;48.28;;;24.75;;
39074;SDS011;24826;52.070;20.970;2022-11-20T06:07:39;46.35;;;24.38;;
39074;SDS011;24826;52.070;20.970;2022-11-20T06:10:23;47.75;;;25.02;;
39074;SDS011;24826;52.070;20.970;2022-11-20T06:13:08;47.28;;;24.38;;
39074;SDS011;24826;52.070;20.970;2022-11-20T06:15:52;50.60;;;25.35;;
39074;SDS011;24826;52.070;20.970;2022-11-20T06:18:37;45.20;;;23.90;;
39074;SDS011;24826;52.070;20.970;2022-11-20T06:21:21;51.80;;;25.23;;
39074;SDS011;24826;52.070;20.970;2022-11-20T06:24:08;49.58;;;24.13;;
39074;SDS011;24826;52.070;20.970;2022-11-20T06:26:52;47.95;;;24.77;;
39074;SDS011;24826;52.070;20.970;2022-11-20T06:29:37;48.80;;;24.73;;
39074;SDS011;24826;52.070;20.970;2022-11-20T06:32:21;48.90;;;24.33;;
39074;SDS011;24826;52.070;20.970;2022-11-20T06:35:05;52.78;;;25.88;;
39074;SDS011;24826;52.070;20.970;2022-11-20T06:37:49;50.40;;;24.00;;
39074;SDS011;24826;52.070;20.970;2022-11-20T06:40:34;52.08;;;25.70;;
39074;SDS011;24826;52.070;20.970;2022-11-20T06:43:18;52.13;;;25.83;;
39074;SDS011;24826;52.070;20.970;2022-11-20T06:46:03;51.63;;;27.15;;
39074;SDS011;24826;52.070;20.970;2022-11-20T06:48:47;50.80;;;27.38;;
39074;SDS011;24826;52.070;20.970;2022-11-20T06:51:33;55.03;;;27.40;;
39074;SDS011;24826;52.070;20.970;2022-11-20T06:54:17;50.90;;;24.65;;
39074;SDS011;24826;52.070;20.970;2022-11-20T06:57:02;54.20;;;27.42;;
39074;SDS011;24826;52.070;20.970;2022-11-20T06:59:46;60.60;;;29.63;;
39074;SDS011;24826;52.070;20.970;2022-11-20T07:02:31;47.60;;;25.77;;
39074;SDS011;24826;52.070;20.970;2022-11-20T07:05:15;51.08;;;27.85;;
39074;SDS011;24826;52.070;20.970;2022-11-20T07:08:00;55.42;;;28.45;;
39074;SDS011;24826;52.070;20.970;2022-11-20T07:10:44;55.13;;;27.08;;
39074;SDS011;24826;52.070;20.970;2022-11-20T07:13:29;51.00;;;27.25;;
39074;SDS011;24826;52.070;20.970;2022-11-20T07:16:14;51.63;;;27.13;;
39074;SDS011;24826;52.070;20.970;2022-11-20T07:18:58;55.45;;;28.58;;
39074;SDS011;24826;52.070;20.970;2022-11-20T07:21:43;58.13;;;28.77;;
39074;SDS011;24826;52.070;20.970;2022-11-20T07:24:27;54.25;;;28.63;;
39074;SDS011;24826;52.070;20.970;2022-11-20T07:27:12;52.83;;;27.40;;
39074;SDS011;24826;52.070;20.970;2022-11-20T07:29:56;57.17;;;27.75;;
39074;SDS011;24826;52.070;20.970;2022-11-20T07:32:40;55.45;;;28.35;;
39074;SDS011;24826;52.070;20.970;2022-11-20T07:35:25;57.05;;;27.95;;
39074;SDS011;24826;52.070;20.970;2022-11-20T07:38:09;57.58;;;29.38;;
39074;SDS011;24826;52.070;20.970;2022-11-20T07:40:57;53.42;;;27.05;;
39074;SDS011;24826;52.070;20.970;2022-11-20T07:43:41;61.75;;;30.02;;
39074;SDS011;24826;52.070;20.970;2022-11-20T07:46:26;63.75;;;28.58;;
39074;SDS011;24826;52.070;20.970;2022-11-20T07:49:10;54.28;;;28.02;;
39074;SDS011;24826;52.070;20.970;2022-11-20T07:51:54;57.42;;;27.55;;
39074;SDS011;24826;52.070;20.970;2022-11-20T07:54:39;57.42;;;28.08;;
39074;SDS011;24826;52.070;20.970;2022-11-20T07:57:23;54.40;;;27.70;;
39074;SDS011;24826;52.070;20.970;2022-11-20T08:00:08;46.58;;;25.35;;
39074;SDS011;24826;52.070;20.970;2022-11-20T08:02:54;51.83;;;26.48;;
39074;SDS011;24826;52.070;20.970;2022-11-20T08:05:38;54.58;;;27.67;;
39074;SDS011;24826;52.070;20.970;2022-11-20T08:08:22;50.15;;;26.77;;
39074;SDS011;24826;52.070;20.970;2022-11-20T08:11:07;51.60;;;26.67;;
39074;SDS011;24826;52.070;20.970;2022-11-20T08:14:11;53.55;;;27.20;;
39074;SDS011;24826;52.070;20.970;2022-11-20T08:16:55;51.80;;;25.55;;
39074;SDS011;24826;52.070;20.970;2022-11-20T08:19:40;50.88;;;27.00;;
39074;SDS011;24826;52.070;20.970;2022-11-20T08:22:24;58.22;;;28.42;;
39074;SDS011;24826;52.070;20.970;2022-11-20T08:25:09;53.17;;;28.25;;
39074;SDS011;24826;52.070;20.970;2022-11-20T08:27:53;60.17;;;29.55;;
39074;SDS011;24826;52.070;20.970;2022-11-20T08:30:38;57.80;;;29.88;;
39074;SDS011;24826;52.070;20.970;2022-11-20T08:33:22;56.75;;;30.70;;
39074;SDS011;24826;52.070;20.970;2022-11-20T08:36:07;57.58;;;28.45;;
39074;SDS011;24826;52.070;20.970;2022-11-20T08:38:53;48.53;;;26.98;;
39074;SDS011;24826;52.070;20.970;2022-11-20T08:41:39;59.70;;;29.73;;
39074;SDS011;24826;52.070;20.970;2022-11-20T08:44:24;58.00;;;29.00;;
39074;SDS011;24826;52.070;20.970;2022-11-20T08:47:08;53.30;;;28.52;;
39074;SDS011;24826;52.070;20.970;2022-11-20T08:49:52;56.80;;;29.40;;
39074;SDS011;24826;52.070;20.970;2022-11-20T08:52:37;57.58;;;29.27;;
39074;SDS011;24826;52.070;20.970;2022-11-20T08:55:21;60.83;;;29.02;;
39074;SDS011;24826;52.070;20.970;2022-11-20T08:58:06;58.55;;;28.75;;
39074;SDS011;24826;52.070;20.970;2022-11-20T09:00:50;57.40;;;29.60;;
39074;SDS011;24826;52.070;20.970;2022-11-20T09:03:34;54.75;;;29.90;;
39074;SDS011;24826;52.070;20.970;2022-11-20T09:06:19;56.80;;;28.65;;
39074;SDS011;24826;52.070;20.970;2022-11-20T09:09:04;55.17;;;30.58;;
39074;SDS011;24826;52.070;20.970;2022-11-20T09:11:49;55.00;;;28.80;;
39074;SDS011;24826;52.070;20.970;2022-11-20T09:14:34;53.65;;;29.15;;
39074;SDS011;24826;52.070;20.970;2022-11-20T09:17:17;62.70;;;31.33;;
39074;SDS011;24826;52.070;20.970;2022-11-20T09:20:02;55.08;;;31.20;;
39074;SDS011;24826;52.070;20.970;2022-11-20T09:22:47;63.58;;;33.17;;
39074;SDS011;24826;52.070;20.970;2022-11-20T09:25:32;54.88;;;32.03;;
39074;SDS011;24826;52.070;20.970;2022-11-20T09:28:16;58.05;;;31.45;;
39074;SDS011;24826;52.070;20.970;2022-11-20T09:31:05;56.08;;;31.05;;
39074;SDS011;24826;52.070;20.970;2022-11-20T09:33:50;57.97;;;32.20;;
39074;SDS011;24826;52.070;20.970;2022-11-20T09:36:35;54.45;;;29.80;;
39074;SDS011;24826;52.070;20.970;2022-11-20T09:39:19;57.20;;;30.42;;
39074;SDS011;24826;52.070;20.970;2022-11-20T09:42:08;51.05;;;29.83;;
39074;SDS011;24826;52.070;20.970;2022-11-20T09:48:26;51.58;;;29.48;;
39074;SDS011;24826;52.070;20.970;2022-11-20T09:54:42;53.80;;;28.83;;
39074;SDS011;24826;52.070;20.970;2022-11-20T09:57:45;58.25;;;30.45;;
39074;SDS011;24826;52.070;20.970;2022-11-20T10:00:35;53.17;;;29.63;;
39074;SDS011;24826;52.070;20.970;2022-11-20T10:03:23;56.40;;;29.30;;
39074;SDS011;24826;52.070;20.970;2022-11-20T10:06:24;52.15;;;29.48;;
39074;SDS011;24826;52.070;20.970;2022-11-20T10:09:38;48.78;;;27.40;;
39074;SDS011;24826;52.070;20.970;2022-11-20T10:12:45;54.17;;;28.20;;
39074;SDS011;24826;52.070;20.970;2022-11-20T10:15:55;51.53;;;27.48;;
39074;SDS011;24826;52.070;20.970;2022-11-20T10:25:15;55.00;;;28.63;;
39074;SDS011;24826;52.070;20.970;2022-11-20T10:31:14;51.38;;;28.30;;
39074;SDS011;24826;52.070;20.970;2022-11-20T10:34:22;50.33;;;26.83;;
39074;SDS011;24826;52.070;20.970;2022-11-20T10:37:14;51.38;;;26.55;;
39074;SDS011;24826;52.070;20.970;2022-11-20T10:40:09;47.30;;;25.70;;
39074;SDS011;24826;52.070;20.970;2022-11-20T10:46:15;43.63;;;24.27;;
39074;SDS011;24826;52.070;20.970;2022-11-20T10:49:03;46.78;;;25.80;;
39074;SDS011;24826;52.070;20.970;2022-11-20T10:57:46;44.88;;;24.98;;
39074;SDS011;24826;52.070;20.970;2022-11-20T11:00:44;44.08;;;23.77;;
39074;SDS011;24826;52.070;20.970;2022-11-20T11:03:29;44.42;;;25.20;;
39074;SDS011;24826;52.070;20.970;2022-11-20T11:09:09;43.20;;;24.52;;
39074;SDS011;24826;52.070;20.970;2022-11-20T11:12:00;46.05;;;24.33;;
39074;SDS011;24826;52.070;20.970;2022-11-20T11:14:46;41.45;;;23.00;;
39074;SDS011;24826;52.070;20.970;2022-11-20T11:17:32;41.45;;;23.65;;
39074;SDS011;24826;52.070;20.970;2022-11-20T11:20:21;40.95;;;22.48;;
39074;SDS011;24826;52.070;20.970;2022-11-20T11:23:10;38.67;;;20.87;;
39074;SDS011;24826;52.070;20.970;2022-11-20T11:26:26;40.00;;;22.20;;
39074;SDS011;24826;52.070;20.970;2022-11-20T11:29:15;37.42;;;20.85;;
39074;SDS011;24826;52.070;20.970;2022-11-20T11:32:34;41.87;;;22.90;;
39074;SDS011;24826;52.070;20.970;2022-11-20T11:35:22;39.90;;;22.77;;
39074;SDS011;24826;52.070;20.970;2022-11-20T11:38:21;39.70;;;22.30;;
39074;SDS011;24826;52.070;20.970;2022-11-20T11:41:28;38.05;;;21.92;;
39074;SDS011;24826;52.070;20.970;2022-11-20T11:44:19;40.13;;;22.52;;
39074;SDS011;24826;52.070;20.970;2022-11-20T11:47:25;41.08;;;21.75;;
39074;SDS011;24826;52.070;20.970;2022-11-20T11:50:21;41.63;;;22.65;;
39074;SDS011;24826;52.070;20.970;2022-11-20T11:53:14;41.20;;;22.60;;
39074;SDS011;24826;52.070;20.970;2022-11-20T11:58:53;42.28;;;22.50;;
39074;SDS011;24826;52.070;20.970;2022-11-20T12:01:44;43.40;;;22.65;;
39074;SDS011;24826;52.070;20.970;2022-11-20T12:04:43;40.75;;;21.95;;
39074;SDS011;24826;52.070;20.970;2022-11-20T12:10:45;38.65;;;21.20;;
39074;SDS011;24826;52.070;20.970;2022-11-20T12:13:35;36.60;;;21.13;;
39074;SDS011;24826;52.070;20.970;2022-11-20T12:16:26;39.75;;;20.92;;
39074;SDS011;24826;52.070;20.970;2022-11-20T12:19:11;42.42;;;20.70;;
39074;SDS011;24826;52.070;20.970;2022-11-20T12:25:07;37.47;;;20.38;;
39074;SDS011;24826;52.070;20.970;2022-11-20T12:28:18;37.00;;;21.00;;
39074;SDS011;24826;52.070;20.970;2022-11-20T12:34:36;41.95;;;21.30;;
39074;SDS011;24826;52.070;20.970;2022-11-20T12:37:33;39.15;;;21.00;;
39074;SDS011;24826;52.070;20.970;2022-11-20T12:43:25;38.67;;;21.60;;
39074;SDS011;24826;52.070;20.970;2022-11-20T12:49:32;38.45;;;20.58;;
39074;SDS011;24826;52.070;20.970;2022-11-20T12:59:10;38.42;;;19.90;;
39074;SDS011;24826;52.070;20.970;2022-11-20T13:02:29;36.53;;;20.75;;
39074;SDS011;24826;52.070;20.970;2022-11-20T13:09:15;36.45;;;20.85;;
39074;SDS011;24826;52.070;20.970;2022-11-20T13:14:44;41.28;;;20.63;;
39074;SDS011;24826;52.070;20.970;2022-11-20T13:17:47;35.70;;;21.10;;
39074;SDS011;24826;52.070;20.970;2022-11-20T13:20:42;40.97;;;23.02;;
39074;SDS011;24826;52.070;20.970;2022-11-20T13:23:30;39.10;;;21.45;;
39074;SDS011;24826;52.070;20.970;2022-11-20T13:26:16;39.00;;;21.80;;
39074;SDS011;24826;52.070;20.970;2022-11-20T13:29:11;38.55;;;21.33;;
39074;SDS011;24826;52.070;20.970;2022-11-20T13:32:13;42.42;;;22.75;;
39074;SDS011;24826;52.070;20.970;2022-11-20T13:35:01;39.90;;;22.33;;
39074;SDS011;24826;52.070;20.970;2022-11-20T13:37:48;43.45;;;24.13;;
39074;SDS011;24826;52.070;20.970;2022-11-20T13:40:55;46.67;;;24.45;;
39074;SDS011;24826;52.070;20.970;2022-11-20T13:43:41;45.55;;;24.35;;
39074;SDS011;24826;52.070;20.970;2022-11-20T13:49:40;45.70;;;23.27;;
39074;SDS011;24826;52.070;20.970;2022-11-20T13:58:45;48.28;;;25.08;;
39074;SDS011;24826;52.070;20.970;2022-11-20T14:01:36;52.70;;;26.63;;
39074;SDS011;24826;52.070;20.970;2022-11-20T14:04:25;50.60;;;27.35;;
39074;SDS011;24826;52.070;20.970;2022-11-20T14:07:12;49.53;;;26.38;;
39074;SDS011;24826;52.070;20.970;2022-11-20T14:09:57;48.90;;;27.48;;
39074;SDS011;24826;52.070;20.970;2022-11-20T14:12:42;54.53;;;26.70;;
39074;SDS011;24826;52.070;20.970;2022-11-20T14:18:14;48.90;;;26.58;;
39074;SDS011;24826;52.070;20.970;2022-11-20T14:21:03;50.28;;;26.05;;
39074;SDS011;24826;52.070;20.970;2022-11-20T14:23:49;49.80;;;27.38;;
39074;SDS011;24826;52.070;20.970;2022-11-20T14:26:37;52.22;;;28.38;;
39074;SDS011;24826;52.070;20.970;2022-11-20T14:29:27;46.47;;;26.48;;
39074;SDS011;24826;52.070;20.970;2022-11-20T14:32:15;57.67;;;29.88;;
39074;SDS011;24826;52.070;20.970;2022-11-20T14:35:13;55.58;;;29.13;;
39074;SDS011;24826;52.070;20.970;2022-11-20T14:38:03;58.97;;;30.92;;
39074;SDS011;24826;52.070;20.970;2022-11-20T14:40:47;49.33;;;28.30;;
39074;SDS011;24826;52.070;20.970;2022-11-20T14:43:32;51.83;;;28.73;;
39074;SDS011;24826;52.070;20.970;2022-11-20T14:46:20;52.83;;;29.63;;
39074;SDS011;24826;52.070;20.970;2022-11-20T14:49:05;56.72;;;29.73;;
39074;SDS011;24826;52.070;20.970;2022-11-20T14:51:58;53.00;;;29.95;;
39074;SDS011;24826;52.070;20.970;2022-11-20T14:54:55;54.35;;;28.33;;
39074;SDS011;24826;52.070;20.970;2022-11-20T14:57:43;54.20;;;30.15;;
39074;SDS011;24826;52.070;20.970;2022-11-20T15:00:28;53.17;;;30.00;;
39074;SDS011;24826;52.070;20.970;2022-11-20T15:03:14;51.13;;;27.88;;
39074;SDS011;24826;52.070;20.970;2022-11-20T15:06:00;51.78;;;27.95;;
39074;SDS011;24826;52.070;20.970;2022-11-20T15:08:51;52.30;;;29.42;;
39074;SDS011;24826;52.070;20.970;2022-11-20T15:11:36;57.55;;;29.92;;
39074;SDS011;24826;52.070;20.970;2022-11-20T15:14:20;54.50;;;28.70;;
39074;SDS011;24826;52.070;20.970;2022-11-20T15:17:07;50.30;;;27.45;;
39074;SDS011;24826;52.070;20.970;2022-11-20T15:19:53;52.42;;;27.80;;
39074;SDS011;24826;52.070;20.970;2022-11-20T15:22:39;49.70;;;27.58;;
39074;SDS011;24826;52.070;20.970;2022-11-20T15:25:23;50.50;;;28.75;;
39074;SDS011;24826;52.070;20.970;2022-11-20T15:28:19;54.53;;;29.15;;
39074;SDS011;24826;52.070;20.970;2022-11-20T15:31:13;53.08;;;28.80;;
39074;SDS011;24826;52.070;20.970;2022-11-20T15:34:00;48.50;;;27.90;;
39074;SDS011;24826;52.070;20.970;2022-11-20T15:36:44;54.53;;;28.25;;
39074;SDS011;24826;52.070;20.970;2022-11-20T15:39:29;52.30;;;27.92;;
39074;SDS011;24826;52.070;20.970;2022-11-20T15:42:13;50.88;;;26.88;;
39074;SDS011;24826;52.070;20.970;2022-11-20T15:44:58;56.25;;;28.70;;
39074;SDS011;24826;52.070;20.970;2022-11-20T15:47:41;54.83;;;30.50;;
39074;SDS011;24826;52.070;20.970;2022-11-20T15:50:27;51.60;;;28.88;;
39074;SDS011;24826;52.070;20.970;2022-11-20T15:53:19;54.17;;;28.77;;
39074;SDS011;24826;52.070;20.970;2022-11-20T15:56:04;51.03;;;27.67;;
39074;SDS011;24826;52.070;20.970;2022-11-20T15:58:48;52.33;;;28.63;;
39074;SDS011;24826;52.070;20.970;2022-11-20T16:01:33;56.42;;;30.02;;
39074;SDS011;24826;52.070;20.970;2022-11-20T16:04:17;67.18;;;32.70;;
39074;SDS011;24826;52.070;20.970;2022-11-20T16:07:02;66.57;;;32.55;;
39074;SDS011;24826;52.070;20.970;2022-11-20T16:09:47;66.72;;;33.00;;
39074;SDS011;24826;52.070;20.970;2022-11-20T16:12:31;60.35;;;30.30;;
39074;SDS011;24826;52.070;20.970;2022-11-20T16:15:34;63.83;;;32.88;;
39074;SDS011;24826;52.070;20.970;2022-11-20T16:18:31;63.90;;;32.05;;
39074;SDS011;24826;52.070;20.970;2022-11-20T16:21:16;56.72;;;30.73;;
39074;SDS011;24826;52.070;20.970;2022-11-20T16:24:04;59.58;;;29.48;;
39074;SDS011;24826;52.070;20.970;2022-11-20T16:26:50;56.33;;;30.95;;
39074;SDS011;24826;52.070;20.970;2022-11-20T16:29:34;54.75;;;29.30;;
39074;SDS011;24826;52.070;20.970;2022-11-20T16:32:18;54.47;;;30.73;;
39074;SDS011;24826;52.070;20.970;2022-11-20T16:35:03;51.55;;;28.80;;
39074;SDS011;24826;52.070;20.970;2022-11-20T16:37:47;51.15;;;27.95;;
39074;SDS011;24826;52.070;20.970;2022-11-20T16:40:32;55.88;;;30.15;;
39074;SDS011;24826;52.070;20.970;2022-11-20T16:43:16;55.47;;;27.60;;
39074;SDS011;24826;52.070;20.970;2022-11-20T16:46:03;52.47;;;29.27;;
39074;SDS011;24826;52.070;20.970;2022-11-20T16:51:39;47.65;;;28.10;;
39074;SDS011;24826;52.070;20.970;2022-11-20T16:54:24;54.03;;;27.88;;
39074;SDS011;24826;52.070;20.970;2022-11-20T16:57:09;49.78;;;28.17;;
39074;SDS011;24826;52.070;20.970;2022-11-20T16:59:53;53.17;;;28.15;;
39074;SDS011;24826;52.070;20.970;2022-11-20T17:02:38;55.72;;;30.38;;
39074;SDS011;24826;52.070;20.970;2022-11-20T17:05:23;52.55;;;29.08;;
39074;SDS011;24826;52.070;20.970;2022-11-20T17:08:07;56.17;;;30.25;;
39074;SDS011;24826;52.070;20.970;2022-11-20T17:10:52;54.05;;;30.63;;
39074;SDS011;24826;52.070;20.970;2022-11-20T17:13:37;56.80;;;29.65;;
39074;SDS011;24826;52.070;20.970;2022-11-20T17:16:22;53.35;;;29.50;;
39074;SDS011;24826;52.070;20.970;2022-11-20T17:19:07;56.88;;;28.60;;
39074;SDS011;24826;52.070;20.970;2022-11-20T17:21:52;57.20;;;31.55;;
39074;SDS011;24826;52.070;20.970;2022-11-20T17:24:37;57.25;;;30.33;;
39074;SDS011;24826;52.070;20.970;2022-11-20T17:27:21;54.95;;;30.77;;
39074;SDS011;24826;52.070;20.970;2022-11-20T17:30:06;52.92;;;28.98;;